Time;durP1;ratioP1;P1;durP2;ratioP2;P2;SDS_P1;SDS_P2;PMS_P1;PMS_P2;Temp;Humidity;BMP_temperature;BMP_pressure;BME280_temperature;BME280_humidity;BME280_pressure;Samples;Min_cycle;Max_cycle;Signal;HPM_P1;HPM_P2
2023/02/23 00:01:30;;;;;;;12.30;10.93;;;6.70;99.90;;;7.49;96.99;97592.84;5169796;28;20204;-79
2023/02/23 00:04:06;;;;;;;12.47;11.27;;;6.70;99.90;;;7.44;97.34;97595.13;5171779;28;20713;-80
2023/02/23 00:06:39;;;;;;;11.87;9.67;;;6.60;99.90;;;7.45;97.39;97595.22;5175898;28;20194;-80
2023/02/23 00:09:21;;;;;;;12.27;11.03;;;6.60;99.90;;;7.45;96.86;97594.34;5170097;28;20210;-80
2023/02/23 00:11:57;;;;;;;11.97;10.43;;;6.60;99.90;;;7.43;97.33;97589.13;5171563;28;20306;-81
2023/02/23 00:14:31;;;;;;;11.10;10.00;;;6.60;99.90;;;7.43;97.41;97590.81;5173716;28;20299;-81
2023/02/23 00:17:04;;;;;;;11.93;10.73;;;6.60;99.90;;;7.40;97.53;97591.47;5173942;28;20622;-81
2023/02/23 00:19:39;;;;;;;10.83;9.93;;;6.60;99.90;;;7.43;97.59;97583.16;5168797;28;20226;-80
2023/02/23 00:22:13;;;;;;;13.00;10.60;;;6.60;99.90;;;7.44;97.53;97588.38;5177070;28;20619;-80
2023/02/23 00:24:46;;;;;;;12.87;10.80;;;6.60;99.90;;;7.42;97.70;97584.84;5172700;28;20847;-80
2023/02/23 00:27:20;;;;;;;12.27;11.17;;;6.60;99.90;;;7.43;97.89;97583.16;5179256;28;20592;-80
2023/02/23 00:29:54;;;;;;;12.70;11.40;;;6.60;99.90;;;7.43;98.01;97576.41;5170176;28;20211;-81
2023/02/23 00:32:27;;;;;;;13.87;11.50;;;6.60;99.90;;;7.45;97.95;97579.06;5173794;28;20251;-80
2023/02/23 00:35:02;;;;;;;15.43;13.03;;;6.60;99.90;;;7.47;97.58;97580.06;5167144;28;20270;-81
2023/02/23 00:37:36;;;;;;;14.10;12.60;;;6.70;99.90;;;7.48;98.45;97579.28;5176013;28;20270;-79
2023/02/23 00:40:13;;;;;;;14.63;13.00;;;6.70;99.90;;;7.54;98.12;97578.78;5172356;28;20210;-80
2023/02/23 00:42:50;;;;;;;14.03;12.63;;;6.70;99.90;;;7.53;98.48;97588.09;5169885;28;20578;-80
2023/02/23 00:45:24;;;;;;;12.57;11.23;;;6.70;99.90;;;7.60;98.11;97580.03;5174310;28;21481;-79
2023/02/23 00:47:57;;;;;;;13.13;11.10;;;6.70;99.90;;;7.64;98.05;97586.19;5178010;28;20221;-80
2023/02/23 00:50:33;;;;;;;12.50;11.20;;;6.70;99.90;;;7.68;97.15;97590.72;5178617;28;20199;-79
2023/02/23 00:53:06;;;;;;;10.83;9.73;;;6.80;99.90;;;7.63;97.09;97589.53;5174981;28;20223;-80
2023/02/23 00:55:43;;;;;;;11.70;10.60;;;6.70;99.90;;;7.59;97.11;97591.00;5163914;28;20259;-80
2023/02/23 00:58:16;;;;;;;12.47;11.27;;;6.70;99.90;;;7.51;97.46;97582.00;5171738;28;20679;-79
2023/02/23 01:00:49;;;;;;;11.87;10.67;;;6.70;99.90;;;7.49;97.85;97586.09;5175668;28;20728;-80
2023/02/23 01:03:23;;;;;;;11.87;10.67;;;6.60;99.90;;;7.51;97.72;97582.00;5171674;28;20312;-80
2023/02/23 01:06:04;;;;;;;12.07;10.87;;;6.70;99.90;;;7.48;97.71;97579.28;5174871;28;20247;-80
2023/02/23 01:08:41;;;;;;;12.27;11.07;;;6.70;99.90;;;7.52;97.55;97585.44;5176714;28;20217;-80
2023/02/23 01:11:17;;;;;;;13.83;11.93;;;6.70;99.90;;;7.58;97.56;97581.63;5173780;28;20198;-80
2023/02/23 01:13:55;;;;;;;12.33;10.77;;;6.80;99.90;;;7.61;98.36;97580.91;5183859;23;20281;-82
2023/02/23 01:16:31;;;;;;;13.67;12.37;;;6.80;99.90;;;7.64;98.58;97576.94;5165988;28;20219;-83
2023/02/23 01:19:05;;;;;;;15.03;13.67;;;6.90;99.90;;;7.67;98.05;97584.75;5163109;28;20273;-83
2023/02/23 01:21:42;;;;;;;15.73;13.10;;;6.90;99.90;;;7.77;97.92;97575.16;5158024;28;20307;-82
2023/02/23 01:24:15;;;;;;;12.33;11.27;;;7.00;99.90;;;7.78;97.58;97579.44;5156034;28;20261;-81
2023/02/23 01:26:49;;;;;;;14.07;12.67;;;7.00;99.90;;;7.78;97.66;97574.34;5159562;28;20251;-83
2023/02/23 01:29:22;;;;;;;12.83;11.53;;;6.90;99.90;;;7.80;97.29;97578.75;5160647;28;20289;-82
2023/02/23 01:31:55;;;;;;;12.70;11.43;;;6.90;99.90;;;7.84;96.63;97578.19;5159631;28;20262;-81
2023/02/23 01:34:28;;;;;;;11.80;10.47;;;6.90;99.90;;;7.78;96.36;97569.28;5162080;28;20214;-83
2023/02/23 01:37:03;;;;;;;11.97;10.77;;;6.90;99.90;;;7.75;97.61;97574.16;5165030;28;20606;-83
2023/02/23 01:39:37;;;;;;;12.90;10.63;;;6.90;99.90;;;7.73;97.66;97573.22;5158683;28;20566;-81
2023/02/23 01:42:13;;;;;;;11.37;10.13;;;6.90;99.90;;;7.75;98.51;97575.03;5156712;28;20210;-82
2023/02/23 01:45:23;;;;;;;11.43;10.33;;;6.90;99.90;;;7.79;98.41;97571.06;5159438;28;20266;-84
2023/02/23 01:48:02;;;;;;;13.93;12.30;;;6.90;99.90;;;7.81;98.35;97569.47;5159593;28;20294;-83
2023/02/23 01:50:49;;;;;;;12.30;11.00;;;7.00;99.90;;;7.86;98.17;97565.56;5150813;28;20217;-82
2023/02/23 01:53:25;;;;;;;12.53;11.27;;;7.00;99.90;;;7.87;97.89;97564.78;5149372;28;20267;-82
2023/02/23 01:56:10;;;;;;;13.13;11.80;;;7.00;99.90;;;7.92;97.62;97568.47;5156148;28;20227;-82
2023/02/23 01:58:47;;;;;;;11.97;10.73;;;7.00;99.90;;;7.92;97.28;97565.94;5161229;28;20195;-81
2023/02/23 02:01:21;;;;;;;12.17;10.67;;;7.00;99.90;;;7.88;97.78;97559.78;5158534;28;20196;-83
2023/02/23 02:03:57;;;;;;;12.83;11.53;;;7.00;99.90;;;7.90;96.73;97565.84;5164940;28;20202;-82
2023/02/23 02:06:32;;;;;;;12.87;10.90;;;7.00;99.90;;;7.88;97.15;97564.88;5158640;28;20231;-81
2023/02/23 02:09:15;;;;;;;12.77;11.17;;;7.00;99.90;;;7.88;97.25;97569.94;5162624;28;20234;-82
2023/02/23 02:11:52;;;;;;;11.40;10.37;;;7.00;99.90;;;7.84;97.50;97555.28;5153462;28;20207;-81
2023/02/23 02:14:30;;;;;;;12.13;11.03;;;6.90;99.90;;;7.80;97.57;97557.53;5157410;28;20215;-82
2023/02/23 02:17:22;;;;;;;13.10;11.80;;;6.90;99.90;;;7.78;98.34;97552.34;5156827;28;20230;-82
2023/02/23 02:21:03;;;;;;;12.27;11.00;;;6.90;99.90;;;7.79;98.11;97553.25;5163936;28;20201;-82
2023/02/23 02:24:49;;;;;;;13.40;11.87;;;7.00;99.90;;;7.79;98.49;97555.78;5132802;28;20204;-83
2023/02/23 02:27:51;;;;;;;13.50;12.20;;;7.00;99.90;;;7.78;98.35;97557.44;5159440;28;20288;-83
2023/02/23 02:30:45;;;;;;;13.37;12.10;;;7.00;99.90;;;7.80;98.18;97547.38;5154736;28;20203;-82
2023/02/23 02:34:25;;;;;;;15.03;13.43;;;7.00;99.90;;;7.80;99.02;97552.44;5160982;28;20235;-83
2023/02/23 02:37:18;;;;;;;15.63;13.90;;;7.00;99.90;;;7.83;98.39;97548.44;5143593;28;21469;-83
2023/02/23 02:40:15;;;;;;;14.83;13.33;;;7.00;99.90;;;7.87;98.47;97550.41;5161910;28;20720;-83
2023/02/23 02:43:07;;;;;;;18.73;16.17;;;7.10;99.90;;;7.91;97.88;97546.38;5165622;28;20203;-83
2023/02/23 02:45:48;;;;;;;16.43;13.87;;;7.10;99.90;;;7.92;97.69;97540.47;5163829;28;20222;-83
2023/02/23 02:48:33;;;;;;;15.80;13.37;;;7.10;99.90;;;7.92;98.16;97542.16;5161001;28;20203;-83
2023/02/23 02:51:16;;;;;;;14.10;12.70;;;7.10;99.90;;;7.86;98.59;97540.97;5166891;28;20195;-84
2023/02/23 02:54:05;;;;;;;16.37;13.03;;;7.10;99.90;;;7.84;98.67;97544.22;5165328;28;20682;-84
2023/02/23 02:56:43;;;;;;;14.30;12.90;;;7.00;99.90;;;7.81;99.00;97537.28;5162507;28;20281;-82
2023/02/23 04:18:30;;;;;;;21.73;18.80;;;6.80;99.90;;;7.45;100.00;97546.91;5167964;28;20290;-84
2023/02/23 04:21:05;;;;;;;21.57;19.37;;;6.80;99.90;;;7.50;100.00;97539.56;5167103;28;20196;-84
2023/02/23 04:23:40;;;;;;;21.60;19.50;;;6.90;99.90;;;7.54;100.00;97538.09;5163676;28;20217;-84
2023/02/23 04:26:13;;;;;;;22.03;19.83;;;6.90;99.90;;;7.52;100.00;97537.97;5165404;28;20227;-83
2023/02/23 04:28:47;;;;;;;21.33;18.53;;;6.90;99.90;;;7.53;100.00;97542.31;5162328;28;20199;-84
2023/02/23 04:31:23;;;;;;;23.13;19.60;;;6.90;99.90;;;7.58;100.00;97542.56;5157213;28;20731;-82
2023/02/23 04:33:58;;;;;;;20.43;18.23;;;6.90;99.90;;;7.49;100.00;97542.00;5160428;28;20200;-81
2023/02/23 04:36:32;;;;;;;21.43;19.13;;;6.80;99.90;;;7.47;100.00;97547.00;5158301;28;20649;-83
2023/02/23 04:39:05;;;;;;;20.83;18.73;;;6.80;99.90;;;7.49;100.00;97545.41;5160840;28;20242;-83
2023/02/23 04:41:38;;;;;;;21.80;19.60;;;6.80;99.90;;;7.48;100.00;97540.25;5160118;28;20231;-84
2023/02/23 04:44:12;;;;;;;21.97;19.60;;;6.80;99.90;;;7.50;100.00;97547.19;5172924;28;20223;-84
2023/02/23 04:46:45;;;;;;;25.10;20.57;;;6.90;99.90;;;7.50;100.00;97544.66;5161482;28;20227;-84
2023/02/23 04:49:20;;;;;;;23.63;21.13;;;6.90;99.90;;;7.52;100.00;97550.69;5163228;28;20204;-84
2023/02/23 04:51:53;;;;;;;25.10;21.27;;;6.90;99.90;;;7.57;100.00;97545.91;5165822;28;20199;-83
2023/02/23 04:54:28;;;;;;;24.67;22.07;;;6.90;99.90;;;7.61;100.00;97551.31;5164071;28;20226;-83
2023/02/23 04:57:01;;;;;;;26.77;21.83;;;7.00;99.90;;;7.64;100.00;97551.50;5167684;28;20346;-83
2023/02/23 04:59:34;;;;;;;22.67;20.27;;;7.00;99.90;;;7.65;100.00;97555.78;5165881;28;20262;-85
2023/02/23 05:02:08;;;;;;;21.10;18.80;;;7.00;99.90;;;7.65;100.00;97548.16;5163556;28;20204;-84
2023/02/23 05:04:43;;;;;;;17.47;15.80;;;6.90;99.90;;;7.68;100.00;97547.47;5166883;28;20216;-84
2023/02/23 05:07:16;;;;;;;18.03;16.07;;;7.00;99.90;;;7.67;100.00;97554.22;5164415;28;20577;-82
2023/02/23 05:09:49;;;;;;;16.60;14.90;;;7.00;99.90;;;7.66;100.00;97544.81;5161622;28;20208;-84
2023/02/23 05:12:23;;;;;;;17.83;16.20;;;6.90;99.90;;;7.63;100.00;97544.63;5163159;28;20203;-84
2023/02/23 05:14:56;;;;;;;17.97;16.17;;;6.90;99.90;;;7.59;100.00;97547.78;5164553;28;20227;-83
2023/02/23 05:17:30;;;;;;;16.90;15.30;;;6.90;99.90;;;7.61;100.00;97550.41;5164907;28;20199;-83
2023/02/23 05:20:05;;;;;;;17.93;16.13;;;6.90;99.90;;;7.60;100.00;97552.06;5163136;28;20211;-84
2023/02/23 05:22:39;;;;;;;18.30;16.10;;;6.90;99.90;;;7.55;100.00;97550.00;5167551;28;20198;-84
2023/02/23 05:25:12;;;;;;;19.03;17.10;;;6.90;99.90;;;7.55;100.00;97544.94;5159567;28;20683;-84
2023/02/23 05:27:45;;;;;;;16.40;14.67;;;6.90;99.90;;;7.55;100.00;97545.81;5158316;28;20279;-84
2023/02/23 05:30:19;;;;;;;18.20;16.30;;;6.80;99.90;;;7.56;100.00;97551.81;5158919;28;20199;-84
2023/02/23 05:32:52;;;;;;;17.90;16.10;;;6.80;99.90;;;7.54;100.00;97544.06;5165128;28;20203;-84
2023/02/23 05:35:26;;;;;;;18.97;16.77;;;6.90;99.90;;;7.57;100.00;97543.38;5161114;28;20223;-83
2023/02/23 05:38:00;;;;;;;17.87;15.57;;;6.90;99.90;;;7.59;100.00;97547.78;5157655;28;20222;-84
2023/02/23 05:40:33;;;;;;;20.23;18.00;;;6.90;99.90;;;7.60;100.00;97546.09;5164596;28;20222;-84
2023/02/23 05:43:06;;;;;;;18.30;16.37;;;6.90;99.90;;;7.58;100.00;97546.03;5159304;28;20202;-83
2023/02/23 05:45:41;;;;;;;20.03;18.03;;;6.90;99.90;;;7.62;100.00;97552.19;5159404;28;20239;-85
2023/02/23 05:48:14;;;;;;;19.43;17.43;;;6.90;99.90;;;7.61;100.00;97546.22;5156677;28;20215;-83
2023/02/23 05:50:49;;;;;;;18.93;17.00;;;6.90;99.90;;;7.62;100.00;97542.88;5162731;28;22136;-85
2023/02/23 05:53:22;;;;;;;19.23;17.33;;;6.90;99.90;;;7.62;100.00;97547.09;5157552;28;20198;-85
2023/02/23 05:55:55;;;;;;;19.83;17.83;;;6.90;99.90;;;7.66;100.00;97549.91;5160153;28;20246;-83
2023/02/23 05:58:29;;;;;;;22.47;20.17;;;6.90;99.90;;;7.62;100.00;97547.97;5158795;28;20624;-82
2023/02/23 06:01:02;;;;;;;21.27;19.00;;;7.00;99.90;;;7.61;100.00;97551.31;5160085;28;20195;-82
2023/02/23 06:03:36;;;;;;;21.17;18.90;;;6.90;99.90;;;7.60;100.00;97546.97;5167780;28;20860;-82
2023/02/23 06:06:11;;;;;;;19.60;17.60;;;6.90;99.90;;;7.61;100.00;97553.84;5155944;28;20272;-83
2023/02/23 06:08:45;;;;;;;18.50;16.50;;;6.90;99.90;;;7.63;100.00;97548.84;5166382;28;20227;-83
2023/02/23 06:11:19;;;;;;;20.27;18.20;;;7.00;99.90;;;7.65;100.00;97550.72;5158932;28;20232;-85
2023/02/23 06:13:54;;;;;;;21.67;19.23;;;7.00;99.90;;;7.65;100.00;97555.78;5156142;28;20199;-86
2023/02/23 06:16:28;;;;;;;22.90;20.50;;;7.00;99.90;;;7.72;100.00;97563.81;5152766;28;20615;-86
2023/02/23 06:19:01;;;;;;;23.40;20.70;;;7.00;99.90;;;7.70;100.00;97565.38;5162566;28;20204;-87
2023/02/23 06:21:36;;;;;;;22.00;19.77;;;7.00;99.90;;;7.68;100.00;97566.16;5162220;28;20192;-87
2023/02/23 06:24:11;;;;;;;21.67;19.57;;;7.00;99.90;;;7.66;100.00;97562.63;5168406;28;20777;-86
2023/02/23 06:26:44;;;;;;;23.07;18.70;;;7.00;99.90;;;7.66;100.00;97570.25;5152949;28;20223;-86
2023/02/23 06:29:17;;;;;;;21.13;18.93;;;7.00;99.90;;;7.70;100.00;97571.34;5159114;28;20211;-86
2023/02/23 06:31:50;;;;;;;23.93;20.90;;;7.00;99.90;;;7.72;100.00;97563.81;5156286;28;20287;-86
2023/02/23 06:34:24;;;;;;;23.97;20.40;;;7.00;99.90;;;7.73;100.00;97568.13;5153151;28;20332;-85
2023/02/23 06:36:59;;;;;;;20.93;18.80;;;7.00;99.90;;;7.70;100.00;97575.53;5153849;28;20216;-85
2023/02/23 06:39:32;;;;;;;23.73;20.67;;;7.00;99.90;;;7.70;100.00;97573.00;5159356;28;20195;-86
2023/02/23 06:42:06;;;;;;;22.33;19.03;;;7.00;99.90;;;7.71;100.00;97572.22;5155100;28;20261;-85
2023/02/23 06:44:39;;;;;;;22.20;19.90;;;7.00;99.90;;;7.73;100.00;97575.75;5165303;28;22205;-86
2023/02/23 06:47:12;;;;;;;23.23;19.93;;;7.00;99.90;;;7.75;100.00;97576.72;5160283;28;22434;-85
2023/02/23 06:49:46;;;;;;;21.77;19.47;;;7.10;99.90;;;7.79;100.00;97582.09;5161892;28;20199;-85
2023/02/23 06:52:21;;;;;;;21.67;19.43;;;7.00;99.90;;;7.81;100.00;97588.19;5165039;28;20719;-86
2023/02/23 06:54:55;;;;;;;22.13;19.70;;;7.10;99.90;;;7.80;100.00;97593.16;5164024;28;20223;-85
2023/02/23 06:57:28;;;;;;;22.83;20.43;;;7.10;99.90;;;7.79;100.00;97581.22;5157721;28;20200;-87
2023/02/23 07:00:02;;;;;;;22.73;20.33;;;7.10;99.90;;;7.82;100.00;97587.38;5155428;28;21586;-87
2023/02/23 07:02:36;;;;;;;23.50;20.13;;;7.10;99.90;;;7.81;100.00;97588.19;5167960;28;20199;-88
2023/02/23 07:05:10;;;;;;;22.43;20.07;;;7.10;99.90;;;7.84;100.00;97585.81;5161917;28;20270;-88
2023/02/23 07:07:46;;;;;;;23.83;21.33;;;7.20;99.90;;;7.89;100.00;97588.63;5164710;28;20226;-85
2023/02/23 07:10:19;;;;;;;27.10;24.30;;;7.20;99.90;;;7.92;100.00;97595.59;5167092;28;20216;-87
2023/02/23 07:12:54;;;;;;;30.33;24.67;;;7.20;99.90;;;7.96;100.00;97600.97;5160135;28;20253;-88
2023/02/23 07:15:27;;;;;;;26.07;22.73;;;7.30;99.90;;;8.02;100.00;97600.47;5162630;28;20274;-87
2023/02/23 07:18:00;;;;;;;29.17;25.70;;;7.30;99.90;;;8.04;100.00;97593.81;5161613;28;20203;-85
2023/02/23 07:20:34;;;;;;;29.17;24.53;;;7.40;99.90;;;8.09;100.00;97600.94;5158488;28;20286;-85
2023/02/23 07:23:09;;;;;;;29.93;25.33;;;7.40;99.90;;;8.15;100.00;97603.00;5165273;28;20191;-85
2023/02/23 07:25:42;;;;;;;26.43;23.53;;;7.40;99.90;;;8.16;100.00;97609.84;5158059;28;20242;-84
2023/02/23 07:28:15;;;;;;;26.80;24.10;;;7.40;99.90;;;8.19;100.00;97610.03;5160137;28;20239;-86
2023/02/23 07:30:49;;;;;;;27.83;23.23;;;7.40;99.90;;;8.21;100.00;97612.66;5157203;28;20254;-87
2023/02/23 07:33:23;;;;;;;27.57;24.67;;;7.50;99.90;;;8.24;100.00;97607.75;5169016;28;20218;-87
2023/02/23 07:35:56;;;;;;;29.03;25.87;;;7.50;99.90;;;8.27;100.00;97605.41;5161666;28;20238;-87
2023/02/23 07:38:31;;;;;;;27.73;24.80;;;7.50;99.90;;;8.28;100.00;97604.63;5165444;28;20203;-88
2023/02/23 07:41:05;;;;;;;27.80;24.83;;;7.60;99.90;;;8.28;100.00;97609.72;5164465;28;20194;-86
2023/02/23 07:43:38;;;;;;;29.90;26.43;;;7.60;99.90;;;8.31;100.00;97612.47;5162762;28;20204;-86
2023/02/23 07:46:14;;;;;;;27.20;24.10;;;7.60;99.90;;;8.34;100.00;97615.19;5165524;28;20216;-87
2023/02/23 07:48:47;;;;;;;28.77;25.67;;;7.60;99.90;;;8.37;100.00;97612.84;5159663;28;20217;-86
2023/02/23 07:51:21;;;;;;;28.23;25.23;;;7.60;99.90;;;8.36;100.00;97613.63;5157873;28;20254;-86
2023/02/23 07:53:55;;;;;;;26.30;23.00;;;7.60;99.90;;;8.40;100.00;97610.50;5170438;28;20261;-86
2023/02/23 07:56:28;;;;;;;26.63;23.73;;;7.70;99.90;;;8.47;100.00;97609.22;5170066;28;20214;-86
2023/02/23 07:59:02;;;;;;;27.90;24.17;;;7.70;99.90;;;8.47;100.00;97617.75;5156800;28;20218;-86
2023/02/23 08:01:35;;;;;;;27.20;24.50;;;7.70;99.90;;;8.50;100.00;97617.06;5161303;28;20204;-87
2023/02/23 08:04:09;;;;;;;26.23;22.93;;;7.80;99.90;;;8.57;100.00;97609.88;5160262;28;20204;-86
2023/02/23 08:06:42;;;;;;;28.67;24.67;;;7.90;99.90;;;8.65;100.00;97612.88;5164485;28;20271;-87
2023/02/23 08:09:16;;;;;;;27.50;24.37;;;7.90;99.90;;;8.70;100.00;97610.59;5163331;28;20211;-88
2023/02/23 08:11:50;;;;;;;28.33;25.27;;;8.00;99.90;;;8.77;100.00;97607.66;5154717;28;20195;-86
2023/02/23 08:14:24;;;;;;;29.33;26.13;;;8.10;99.90;;;8.85;100.00;97609.00;5169608;28;20261;-86
2023/02/23 08:16:57;;;;;;;31.23;26.97;;;8.10;99.90;;;8.87;100.00;97609.97;5160591;28;20231;-87
2023/02/23 08:19:30;;;;;;;32.57;28.77;;;8.10;99.90;;;8.86;100.00;97620.06;5172173;28;20274;-85
2023/02/23 08:22:04;;;;;;;31.23;27.73;;;8.10;99.90;;;8.87;100.00;97616.72;5164527;28;20262;-84
2023/02/23 08:24:42;;;;;;;35.23;28.77;;;8.10;99.90;;;8.95;100.00;97618.91;5163880;28;20291;-85
2023/02/23 08:27:15;;;;;;;29.33;25.73;;;8.20;99.90;;;8.99;100.00;97620.00;5164451;28;20686;-85
2023/02/23 08:29:51;;;;;;;31.23;27.80;;;8.20;99.90;;;9.00;100.00;97622.63;5161164;28;20219;-86
2023/02/23 08:32:24;;;;;;;32.50;28.40;;;8.20;99.90;;;9.03;100.00;97627.03;5160732;28;20201;-86
2023/02/23 08:34:59;;;;;;;33.37;27.90;;;8.20;99.90;;;8.96;100.00;97624.94;5164640;28;20230;-85
2023/02/23 08:37:33;;;;;;;31.87;27.63;;;8.20;99.90;;;8.96;100.00;97620.69;5159010;28;20200;-85
2023/02/23 08:40:11;;;;;;;30.77;27.47;;;8.20;99.90;;;8.94;100.00;97619.72;5148238;28;20207;-85
2023/02/23 08:42:44;;;;;;;30.80;27.03;;;8.20;99.90;;;8.92;100.00;97618.75;5154939;28;20199;-85
2023/02/23 08:45:18;;;;;;;32.83;27.10;;;8.20;99.90;;;8.97;100.00;97621.56;5156131;28;20619;-85
2023/02/23 08:47:54;;;;;;;31.03;27.73;;;8.20;99.90;;;9.00;100.00;97627.72;5158867;28;20258;-85
2023/02/23 08:50:27;;;;;;;30.80;27.57;;;8.30;99.90;;;8.98;100.00;97624.19;5159290;28;20246;-85
2023/02/23 08:53:01;;;;;;;29.43;26.40;;;8.30;99.90;;;9.04;100.00;97628.78;5150452;28;20203;-84
2023/02/23 08:55:38;;;;;;;33.27;28.77;;;8.30;99.90;;;9.09;100.00;97621.41;5156745;28;20273;-85
2023/02/23 08:58:11;;;;;;;32.87;28.97;;;8.30;99.90;;;9.09;100.00;97631.63;5157277;28;20227;-85
2023/02/23 09:00:45;;;;;;;31.97;28.57;;;8.30;99.90;;;9.12;100.00;97624.16;5162002;28;20203;-85
2023/02/23 09:03:18;;;;;;;32.60;29.05;;;8.30;99.90;;;9.14;100.00;97635.31;5155549;28;20191;-85
2023/02/23 09:05:52;;;;;;;34.20;29.57;;;8.40;99.90;;;9.17;100.00;97628.72;5163604;28;20215;-85
2023/02/23 09:08:25;;;;;;;35.33;30.50;;;8.40;99.90;;;9.22;100.00;97634.09;5162459;28;20246;-85
2023/02/23 09:11:00;;;;;;;34.53;29.27;;;8.50;99.90;;;9.26;100.00;97630.94;5158459;28;20234;-85
2023/02/23 09:13:34;;;;;;;37.33;31.13;;;8.50;99.90;;;9.32;100.00;97631.28;5150837;28;20236;-85
2023/02/23 09:16:08;;;;;;;32.93;29.40;;;8.60;99.90;;;9.32;100.00;97628.72;5163277;28;20229;-84
2023/02/23 09:18:42;;;;;;;37.22;31.42;;;8.60;99.90;;;9.37;100.00;97641.75;5156874;28;20210;-86
2023/02/23 09:21:21;;;;;;;38.53;32.50;;;8.60;99.90;;;9.41;100.00;97636.94;5159685;28;20192;-85
2023/02/23 09:23:54;;;;;;;34.37;30.70;;;8.60;99.90;;;9.41;100.00;97636.94;5159368;28;20684;-85
2023/02/23 09:26:31;;;;;;;37.13;30.67;;;8.60;99.90;;;9.48;100.00;97636.47;5150575;28;20311;-85
2023/02/23 09:29:04;;;;;;;36.40;31.05;;;8.70;99.90;;;9.54;100.00;97632.53;5156935;28;20211;-86
2023/02/23 09:31:42;;;;;;;36.70;31.77;;;8.70;99.90;;;9.62;100.00;97636.41;5156989;28;20308;-86
2023/02/23 09:34:15;;;;;;;38.33;31.10;;;8.80;99.90;;;9.67;100.00;97640.06;5154886;28;20980;-87
2023/02/23 09:36:50;;;;;;;40.92;34.97;;;8.90;99.90;;;9.76;100.00;97640.63;5155201;28;20771;-87
2023/02/23 09:39:23;;;;;;;37.85;33.03;;;9.00;99.90;;;9.81;100.00;97634.06;5157619;28;20198;-87
2023/02/23 09:42:34;;;;;;;37.27;32.23;;;9.00;99.90;;;9.99;100.00;97633.38;5161262;28;20238;-87
2023/02/23 09:45:19;;;;;;;38.00;32.72;;;9.20;99.90;;;10.15;100.00;97641.06;5158329;28;20239;-89
2023/02/23 09:48:07;;;;;;;35.80;31.23;;;9.30;99.90;;;10.29;100.00;97634.19;5151446;28;20576;-88
2023/02/23 09:50:44;;;;;;;38.60;32.72;;;9.50;99.90;;;10.45;100.00;97633.34;5155408;28;20271;-86
2023/02/23 09:53:39;;;;;;;34.55;30.65;;;9.60;99.90;;;10.66;100.00;97636.16;5158444;28;20214;-88
2023/02/23 09:56:20;;;;;;;34.40;30.60;;;9.80;99.90;;;10.81;100.00;97637.84;5159180;28;20286;-88
2023/02/23 09:58:56;;;;;;;32.03;27.80;;;10.00;99.90;;;10.93;100.00;97634.16;5151336;28;20196;-87
2023/02/23 10:01:56;;;;;;;31.65;26.92;;;10.10;99.90;;;11.07;100.00;97638.31;5156980;28;20628;-87
2023/02/23 10:04:32;;;;;;;30.80;27.40;;;10.20;99.90;;;11.15;100.00;97631.91;5147123;28;20587;-87
2023/02/23 10:07:13;;;;;;;30.20;27.00;;;10.30;99.90;;;11.20;100.00;97632.16;5168596;28;20196;-85
2023/02/23 10:10:03;;;;;;;25.85;23.15;;;10.30;99.90;;;11.34;100.00;97638.84;5153648;28;20238;-86
2023/02/23 10:12:49;;;;;;;24.35;20.88;;;10.50;99.90;;;11.37;99.54;97640.69;5161565;28;20242;-87
2023/02/23 10:15:34;;;;;;;22.00;19.70;;;10.50;99.90;;;11.33;99.28;97633.63;5148591;28;20591;-87
2023/02/23 10:18:19;;;;;;;20.33;17.95;;;10.50;99.90;;;11.43;99.56;97633.31;5162782;28;20199;-87
2023/02/23 10:20:59;;;;;;;19.83;17.63;;;10.60;99.90;;;11.46;99.21;97641.13;5161731;28;20199;-89
2023/02/23 10:23:39;;;;;;;18.73;16.65;;;10.70;99.90;;;11.53;98.09;97635.50;5160865;28;20621;-89
2023/02/23 10:26:18;;;;;;;16.98;14.10;;;10.70;99.90;;;11.69;97.87;97630.34;5161973;28;20265;-89
2023/02/23 10:28:54;;;;;;;15.02;13.48;;;10.80;99.90;;;11.85;96.43;97636.22;5158406;28;20292;-87
2023/02/23 10:31:38;;;;;;;16.40;14.73;;;11.00;99.90;;;11.95;96.08;97633.31;5161015;28;20223;-87
2023/02/23 10:34:16;;;;;;;16.27;14.10;;;11.10;99.90;;;12.03;95.47;97632.00;5167698;28;20286;-87
2023/02/23 10:36:58;;;;;;;14.07;12.68;;;11.20;99.90;;;12.13;93.90;97631.66;5167448;28;20229;-86
2023/02/23 10:39:33;;;;;;;14.32;12.93;;;11.20;99.90;;;12.20;93.37;97635.38;5162790;28;20198;-86
2023/02/23 10:42:14;;;;;;;14.82;13.27;;;11.30;99.90;;;12.30;92.42;97632.41;5164763;28;20257;-85
2023/02/23 10:44:48;;;;;;;14.48;12.57;;;11.40;99.90;;;12.39;92.03;97632.88;5164436;28;20242;-86
2023/02/23 10:47:26;;;;;;;12.90;11.68;;;11.40;99.90;;;12.36;90.12;97627.59;5165285;28;20643;-84
2023/02/23 10:50:02;;;;;;;13.38;12.07;;;11.40;99.90;;;12.43;90.12;97627.88;5163097;28;20640;-84
2023/02/23 10:52:41;;;;;;;11.75;10.52;;;11.50;99.90;;;12.52;89.83;97628.28;5160205;28;20214;-84
2023/02/23 10:55:26;;;;;;;14.70;11.25;;;11.60;99.90;;;12.63;89.30;97629.66;5165720;28;20273;-84
2023/02/23 10:58:15;;;;;;;11.77;10.57;;;11.60;99.90;;;12.62;86.96;97621.09;5161300;28;20199;-84
2023/02/23 11:00:54;;;;;;;10.88;9.75;;;11.70;99.90;;;12.74;87.78;97622.44;5166143;28;20202;-85
2023/02/23 11:03:34;;;;;;;11.20;10.10;;;11.80;99.90;;;12.87;86.98;97619.59;5159624;28;20222;-85
2023/02/23 11:06:27;;;;;;;12.07;10.43;;;11.90;99.90;;;12.95;86.60;97619.94;5160372;28;20219;-85
2023/02/23 11:09:24;;;;;;;12.80;11.50;;;12.10;99.90;;;13.00;87.30;97619.34;5165919;28;20195;-85
2023/02/23 11:12:21;;;;;;;10.63;9.43;;;12.10;99.90;;;13.25;85.44;97621.31;5155832;28;20287;-85
2023/02/23 11:14:57;;;;;;;11.40;10.13;;;12.30;99.90;;;13.44;83.14;97617.81;5158881;28;20315;-85
2023/02/23 11:17:34;;;;;;;11.20;9.73;;;12.50;99.90;;;13.41;82.99;97612.56;5153188;28;20207;-86
2023/02/23 11:20:26;;;;;;;11.65;9.60;;;12.40;99.90;;;13.40;83.27;97617.63;5165233;28;20199;-86
2023/02/23 11:22:59;;;;;;;11.90;10.30;;;12.40;99.90;;;13.39;84.17;97613.28;5156959;28;20656;-84
2023/02/23 11:25:45;;;;;;;10.48;9.48;;;12.40;99.90;;;13.45;83.47;97608.44;5159655;28;20219;-85
2023/02/23 11:28:26;;;;;;;11.27;8.90;;;12.50;99.90;;;13.66;82.23;97603.31;5175002;28;20199;-85
2023/02/23 11:31:04;;;;;;;10.40;9.13;;;12.60;99.90;;;13.68;81.15;97605.13;5162329;28;20219;-85
2023/02/23 11:33:40;;;;;;;10.65;8.98;;;12.70;99.90;;;13.68;80.17;97606.81;5169153;28;20230;-83
2023/02/23 11:36:26;;;;;;;10.38;8.68;;;12.60;99.90;;;13.77;80.16;97596.91;5158949;28;20224;-84
2023/02/23 11:39:22;;;;;;;10.00;8.95;;;12.60;99.90;;;13.72;80.25;97600.97;5166120;28;20199;-85
2023/02/23 11:42:16;;;;;;;11.75;9.45;;;12.70;99.90;;;13.73;80.23;97597.59;5160565;28;20506;-84
2023/02/23 11:45:03;;;;;;;14.00;9.70;;;12.70;99.90;;;13.82;79.37;97585.13;5169608;28;20216;-86
2023/02/23 11:47:41;;;;;;;11.27;8.90;;;12.80;99.90;;;13.78;78.80;97587.50;5173323;28;20199;-87
2023/02/23 11:50:27;;;;;;;9.30;8.38;;;12.80;99.90;;;13.84;79.31;97588.63;5162531;28;20656;-87
2023/02/23 11:53:05;;;;;;;9.10;7.75;;;12.90;99.90;;;13.95;77.76;97583.91;5161267;28;20207;-87
2023/02/23 11:55:39;;;;;;;10.90;8.23;;;12.90;99.90;;;14.07;77.62;97583.50;5180392;28;20266;-85
2023/02/23 11:58:25;;;;;;;9.02;7.88;;;13.00;99.90;;;14.15;75.83;97582.13;5180672;28;20237;-85
2023/02/23 12:01:02;;;;;;;8.43;7.25;;;13.10;99.90;;;14.09;77.23;97574.19;5179192;28;20219;-85
2023/02/23 12:03:36;;;;;;;10.88;8.20;;;13.00;99.90;;;14.17;76.94;97577.94;5172850;28;20198;-85
2023/02/23 12:06:10;;;;;;;8.63;7.75;;;13.10;99.90;;;14.19;76.63;97568.56;5175418;28;20213;-86
2023/02/23 12:08:51;;;;;;;9.85;7.55;;;13.10;99.90;;;14.14;76.38;97567.53;5182701;28;20214;-86
2023/02/23 12:11:29;;;;;;;7.10;6.30;;;13.10;99.90;;;14.18;74.79;97571.94;5178940;28;20210;-86
2023/02/23 12:14:08;;;;;;;7.22;6.20;;;13.00;99.90;;;14.14;74.72;97562.38;5179008;28;20191;-86
2023/02/23 12:16:45;;;;;;;8.35;5.93;;;13.00;99.90;;;14.06;75.46;97561.22;5172645;28;20219;-84